KFAM

Farmington Regional Airport

Farmington, Missouri, USA
METAR KFAM 210356Z AUTO 18010KT 10SM OVC012 09/07 A2999 RMK AO2 SLP156 T00890072
Observed Flight Rules
Jan-21 @ 03:56 UTC (52 minutes ago) Marginal Visual Flight Rules
Wind Visibility Clouds
180° at 10 knots 10 miles
  • Overcast at 1,200' AGL
Temperatures Readings
Current 9°C / 48°F
Dewpoint 7°C / 45°F
Humidity 87%
Altimeter 29.99" Hg
Pressure 1015.6 hPa
Elevation 288
METAR KFAM 210356Z AUTO 18010KT 10SM OVC012 09/07 A2999 RMK AO2 SLP156 T00890072
Observed Flight Rules
Jan-21 @ 03:56 UTC
(52 minutes ago)
MVFR
Wind Visibility
180° at 10 knots 10 miles
Clouds
  • Overcast at 1,200' AGL
Temperature Dewpoint
9°C / 48°F 7°C / 45°F
Humidity Altimeter Pressure
87% 29.99" Hg 1015.6 hPa